sensor_id;sensor_type;location;lat;lon;timestamp;pressure;altitude;pressure_sealevel;temperature;humidity
21185;BME280;18176;49.502;11.754;2022-11-15T00:01:31;96937.41;;;11.48;60.21
21185;BME280;18176;49.502;11.754;2022-11-15T00:05:51;96923.13;;;11.26;59.50
21185;BME280;18176;49.502;11.754;2022-11-15T00:10:10;96951.63;;;11.19;59.92
21185;BME280;18176;49.502;11.754;2022-11-15T00:14:29;96944.03;;;11.22;60.25
21185;BME280;18176;49.502;11.754;2022-11-15T00:18:50;96947.09;;;11.31;60.46
21185;BME280;18176;49.502;11.754;2022-11-15T00:23:10;96943.06;;;11.40;60.95
21185;BME280;18176;49.502;11.754;2022-11-15T00:27:29;96943.00;;;11.63;61.10
21185;BME280;18176;49.502;11.754;2022-11-15T00:31:47;96938.63;;;11.69;61.11
21185;BME280;18176;49.502;11.754;2022-11-15T00:36:09;96949.22;;;11.80;61.24
21185;BME280;18176;49.502;11.754;2022-11-15T00:40:28;96930.78;;;11.90;61.02
21185;BME280;18176;49.502;11.754;2022-11-15T00:44:48;96934.78;;;12.05;60.93
21185;BME280;18176;49.502;11.754;2022-11-15T00:49:06;96926.44;;;12.13;59.94
21185;BME280;18176;49.502;11.754;2022-11-15T00:53:28;96920.88;;;12.14;60.56
21185;BME280;18176;49.502;11.754;2022-11-15T00:57:47;96917.50;;;12.19;60.50
21185;BME280;18176;49.502;11.754;2022-11-15T01:02:05;96901.56;;;12.19;60.45
21185;BME280;18176;49.502;11.754;2022-11-15T01:06:24;96895.13;;;12.15;60.77
21185;BME280;18176;49.502;11.754;2022-11-15T01:10:46;96900.44;;;12.31;60.29
21185;BME280;18176;49.502;11.754;2022-11-15T01:15:06;96887.72;;;12.33;60.23
21185;BME280;18176;49.502;11.754;2022-11-15T01:19:25;96897.53;;;12.33;59.58
21185;BME280;18176;49.502;11.754;2022-11-15T01:23:44;96884.72;;;12.30;60.14
21185;BME280;18176;49.502;11.754;2022-11-15T01:28:05;96884.81;;;12.35;60.29
21185;BME280;18176;49.502;11.754;2022-11-15T01:32:24;96879.84;;;12.38;60.02
21185;BME280;18176;49.502;11.754;2022-11-15T01:36:43;96874.03;;;12.41;59.85
21185;BME280;18176;49.502;11.754;2022-11-15T01:41:02;96878.69;;;12.51;59.94
21185;BME280;18176;49.502;11.754;2022-11-15T01:45:23;96868.88;;;12.51;60.27
21185;BME280;18176;49.502;11.754;2022-11-15T01:49:52;96865.97;;;12.53;60.31
21185;BME280;18176;49.502;11.754;2022-11-15T01:54:17;96860.16;;;12.56;59.79
21185;BME280;18176;49.502;11.754;2022-11-15T01:58:40;96851.25;;;12.45;59.71
21185;BME280;18176;49.502;11.754;2022-11-15T02:03:02;96855.03;;;12.33;59.35
21185;BME280;18176;49.502;11.754;2022-11-15T02:07:23;96857.28;;;12.08;59.43
21185;BME280;18176;49.502;11.754;2022-11-15T02:11:45;96833.38;;;11.63;59.65
21185;BME280;18176;49.502;11.754;2022-11-15T02:16:15;96852.50;;;11.48;60.05
21185;BME280;18176;49.502;11.754;2022-11-15T02:21:13;96860.16;;;11.33;60.12
21185;BME280;18176;49.502;11.754;2022-11-15T02:25:41;96857.22;;;11.18;59.96
21185;BME280;18176;49.502;11.754;2022-11-15T02:30:24;96849.44;;;10.88;60.75
21185;BME280;18176;49.502;11.754;2022-11-15T02:34:54;96836.53;;;10.69;60.63
21185;BME280;18176;49.502;11.754;2022-11-15T02:39:23;96829.66;;;10.68;60.69
21185;BME280;18176;49.502;11.754;2022-11-15T02:43:48;96823.31;;;10.57;60.64
21185;BME280;18176;49.502;11.754;2022-11-15T02:48:19;96829.22;;;10.47;61.09
21185;BME280;18176;49.502;11.754;2022-11-15T02:52:39;96826.44;;;10.42;61.10
21185;BME280;18176;49.502;11.754;2022-11-15T02:57:02;96824.63;;;10.31;60.80
21185;BME280;18176;49.502;11.754;2022-11-15T03:01:38;96811.69;;;10.12;61.07
21185;BME280;18176;49.502;11.754;2022-11-15T03:06:18;96792.69;;;10.03;61.30
21185;BME280;18176;49.502;11.754;2022-11-15T03:10:46;96804.28;;;10.02;61.09
21185;BME280;18176;49.502;11.754;2022-11-15T03:15:17;96809.00;;;10.00;61.24
21185;BME280;18176;49.502;11.754;2022-11-15T03:19:44;96794.25;;;9.93;61.11
21185;BME280;18176;49.502;11.754;2022-11-15T03:24:08;96804.63;;;9.82;62.16
21185;BME280;18176;49.502;11.754;2022-11-15T03:28:37;96772.72;;;9.66;62.39
21185;BME280;18176;49.502;11.754;2022-11-15T03:32:59;96791.84;;;9.91;61.88
21185;BME280;18176;49.502;11.754;2022-11-15T03:37:29;96787.81;;;9.88;61.88
21185;BME280;18176;49.502;11.754;2022-11-15T03:42:00;96789.06;;;9.74;61.61
21185;BME280;18176;49.502;11.754;2022-11-15T03:46:27;96791.00;;;9.67;62.04
21185;BME280;18176;49.502;11.754;2022-11-15T03:50:48;96774.78;;;9.64;62.74
21185;BME280;18176;49.502;11.754;2022-11-15T03:55:11;96763.78;;;9.67;63.38
21185;BME280;18176;49.502;11.754;2022-11-15T03:59:33;96777.09;;;9.72;63.42
21185;BME280;18176;49.502;11.754;2022-11-15T04:03:52;96773.88;;;9.70;64.13
21185;BME280;18176;49.502;11.754;2022-11-15T04:08:11;96771.34;;;9.75;63.62
21185;BME280;18176;49.502;11.754;2022-11-15T04:12:30;96767.34;;;9.84;63.24
21185;BME280;18176;49.502;11.754;2022-11-15T04:16:54;96774.16;;;10.03;62.70
21185;BME280;18176;49.502;11.754;2022-11-15T04:21:12;96782.94;;;10.15;62.33
21185;BME280;18176;49.502;11.754;2022-11-15T04:25:45;96775.56;;;10.17;62.06
21185;BME280;18176;49.502;11.754;2022-11-15T04:30:07;96782.00;;;10.21;61.84
21185;BME280;18176;49.502;11.754;2022-11-15T04:34:29;96778.22;;;10.29;61.70
21185;BME280;18176;49.502;11.754;2022-11-15T04:38:48;96765.88;;;10.11;61.87
21185;BME280;18176;49.502;11.754;2022-11-15T04:43:06;96764.25;;;10.10;61.80
21185;BME280;18176;49.502;11.754;2022-11-15T04:47:26;96766.34;;;10.08;61.58
21185;BME280;18176;49.502;11.754;2022-11-15T04:51:48;96762.88;;;9.96;61.87
21185;BME280;18176;49.502;11.754;2022-11-15T04:56:07;96757.56;;;9.96;61.71
21185;BME280;18176;49.502;11.754;2022-11-15T05:00:27;96767.03;;;9.92;61.48
21185;BME280;18176;49.502;11.754;2022-11-15T05:04:46;96758.69;;;9.77;61.83
21185;BME280;18176;49.502;11.754;2022-11-15T05:09:07;96718.75;;;9.44;62.07
21185;BME280;18176;49.502;11.754;2022-11-15T05:13:26;96738.66;;;9.58;61.98
21185;BME280;18176;49.502;11.754;2022-11-15T05:17:45;96741.09;;;9.59;61.94
21185;BME280;18176;49.502;11.754;2022-11-15T05:22:04;96748.56;;;9.51;62.23
21185;BME280;18176;49.502;11.754;2022-11-15T05:26:25;96739.13;;;9.55;62.00
21185;BME280;18176;49.502;11.754;2022-11-15T05:30:44;96745.41;;;9.42;62.09
21185;BME280;18176;49.502;11.754;2022-11-15T05:35:07;96736.31;;;9.27;62.26
21185;BME280;18176;49.502;11.754;2022-11-15T05:39:27;96741.97;;;9.42;61.90
21185;BME280;18176;49.502;11.754;2022-11-15T05:43:50;96740.03;;;9.49;61.85
21185;BME280;18176;49.502;11.754;2022-11-15T05:48:10;96709.44;;;9.30;61.91
21185;BME280;18176;49.502;11.754;2022-11-15T05:52:33;96739.31;;;9.42;62.24
21185;BME280;18176;49.502;11.754;2022-11-15T05:56:54;96741.84;;;9.37;62.56
21185;BME280;18176;49.502;11.754;2022-11-15T06:01:15;96724.41;;;9.59;62.31
21185;BME280;18176;49.502;11.754;2022-11-15T06:05:34;96728.19;;;9.63;62.24
21185;BME280;18176;49.502;11.754;2022-11-15T06:09:54;96728.78;;;9.65;62.02
21185;BME280;18176;49.502;11.754;2022-11-15T06:14:12;96728.09;;;9.81;61.88
21185;BME280;18176;49.502;11.754;2022-11-15T06:18:35;96728.09;;;9.81;61.58
21185;BME280;18176;49.502;11.754;2022-11-15T06:22:57;96734.31;;;9.63;62.00
21185;BME280;18176;49.502;11.754;2022-11-15T06:27:16;96730.66;;;9.76;61.72
21185;BME280;18176;49.502;11.754;2022-11-15T06:31:35;96743.78;;;9.94;62.17
21185;BME280;18176;49.502;11.754;2022-11-15T06:36:01;96735.81;;;9.82;62.93
21185;BME280;18176;49.502;11.754;2022-11-15T06:40:19;96740.06;;;9.95;63.31
21185;BME280;18176;49.502;11.754;2022-11-15T06:44:38;96742.25;;;10.44;64.18
21185;BME280;18176;49.502;11.754;2022-11-15T06:48:57;96739.34;;;10.57;62.83
21185;BME280;18176;49.502;11.754;2022-11-15T06:53:27;96749.03;;;10.64;62.80
21185;BME280;18176;49.502;11.754;2022-11-15T06:57:48;96743.06;;;10.56;62.41
21185;BME280;18176;49.502;11.754;2022-11-15T07:02:11;96744.91;;;10.44;62.54
21185;BME280;18176;49.502;11.754;2022-11-15T07:06:30;96750.66;;;10.41;62.57
21185;BME280;18176;49.502;11.754;2022-11-15T07:11:05;96731.59;;;10.16;62.67
21185;BME280;18176;49.502;11.754;2022-11-15T07:15:29;96741.72;;;10.19;62.88
21185;BME280;18176;49.502;11.754;2022-11-15T07:19:49;96741.34;;;10.39;62.55
21185;BME280;18176;49.502;11.754;2022-11-15T07:24:08;96727.78;;;10.24;61.69
21185;BME280;18176;49.502;11.754;2022-11-15T07:28:29;96741.34;;;10.39;63.17
21185;BME280;18176;49.502;11.754;2022-11-15T07:32:53;96742.25;;;10.56;62.52
21185;BME280;18176;49.502;11.754;2022-11-15T07:37:13;96753.16;;;10.59;62.93
21185;BME280;18176;49.502;11.754;2022-11-15T07:41:33;96753.59;;;10.80;63.02
21185;BME280;18176;49.502;11.754;2022-11-15T07:45:56;96758.59;;;10.93;63.04
21185;BME280;18176;49.502;11.754;2022-11-15T07:50:18;96726.41;;;10.73;63.99
21185;BME280;18176;49.502;11.754;2022-11-15T07:54:38;96746.03;;;11.28;63.65
21185;BME280;18176;49.502;11.754;2022-11-15T07:58:58;96714.16;;;11.11;62.19
21185;BME280;18176;49.502;11.754;2022-11-15T08:03:27;96745.72;;;11.41;61.15
21185;BME280;18176;49.502;11.754;2022-11-15T08:07:46;96727.16;;;11.74;61.53
21185;BME280;18176;49.502;11.754;2022-11-15T08:12:07;96706.66;;;11.86;59.46
21185;BME280;18176;49.502;11.754;2022-11-15T08:16:26;96726.91;;;12.09;59.00
21185;BME280;18176;49.502;11.754;2022-11-15T08:20:47;96714.50;;;12.15;57.62
21185;BME280;18176;49.502;11.754;2022-11-15T08:25:06;96693.03;;;12.38;58.56
21185;BME280;18176;49.502;11.754;2022-11-15T08:29:26;96705.28;;;12.82;56.37
21185;BME280;18176;49.502;11.754;2022-11-15T08:33:45;96693.13;;;12.91;55.93
21185;BME280;18176;49.502;11.754;2022-11-15T08:38:08;96695.66;;;13.29;56.42
21185;BME280;18176;49.502;11.754;2022-11-15T08:42:27;96694.19;;;13.75;54.96
21185;BME280;18176;49.502;11.754;2022-11-15T08:46:46;96691.19;;;13.67;54.08
21185;BME280;18176;49.502;11.754;2022-11-15T08:51:05;96680.81;;;14.07;54.14
21185;BME280;18176;49.502;11.754;2022-11-15T08:55:40;96679.41;;;14.36;53.07
21185;BME280;18176;49.502;11.754;2022-11-15T08:59:59;96663.22;;;14.53;51.78
21185;BME280;18176;49.502;11.754;2022-11-15T09:04:20;96638.81;;;14.96;51.57
21185;BME280;18176;49.502;11.754;2022-11-15T09:08:39;96654.38;;;15.44;50.87
21185;BME280;18176;49.502;11.754;2022-11-15T09:13:07;96678.66;;;15.88;49.66
21185;BME280;18176;49.502;11.754;2022-11-15T09:17:30;96675.88;;;16.39;48.54
21185;BME280;18176;49.502;11.754;2022-11-15T09:21:50;96667.66;;;16.94;47.90
21185;BME280;18176;49.502;11.754;2022-11-15T09:26:09;96664.31;;;17.12;47.64
21185;BME280;18176;49.502;11.754;2022-11-15T09:30:33;96623.69;;;17.05;47.25
21185;BME280;18176;49.502;11.754;2022-11-15T09:46:15;96561.59;;;17.32;45.97
21185;BME280;18176;49.502;11.754;2022-11-15T09:51:37;96652.59;;;17.76;46.13
21185;BME280;18176;49.502;11.754;2022-11-15T09:56:29;96535.25;;;17.15;45.63
21185;BME280;18176;49.502;11.754;2022-11-15T10:00:36;96581.69;;;17.92;45.67
21185;BME280;18176;49.502;11.754;2022-11-15T10:04:49;96582.59;;;18.06;45.47
21185;BME280;18176;49.502;11.754;2022-11-15T10:08:57;96562.81;;;18.02;44.96
21185;BME280;18176;49.502;11.754;2022-11-15T10:13:00;96576.16;;;18.54;44.40
21185;BME280;18176;49.502;11.754;2022-11-15T10:22:03;96575.78;;;19.17;43.31
21185;BME280;18176;49.502;11.754;2022-11-15T10:26:15;96531.78;;;19.77;42.03
21185;BME280;18176;49.502;11.754;2022-11-15T10:30:19;96540.56;;;20.23;41.47
21185;BME280;18176;49.502;11.754;2022-11-15T10:34:23;96521.50;;;20.34;41.27
21185;BME280;18176;49.502;11.754;2022-11-15T10:38:29;96552.78;;;21.06;40.18
21185;BME280;18176;49.502;11.754;2022-11-15T10:42:30;96538.41;;;21.41;39.53
21185;BME280;18176;49.502;11.754;2022-11-15T10:46:32;96506.06;;;21.41;39.20
21185;BME280;18176;49.502;11.754;2022-11-15T10:50:45;96497.66;;;21.74;38.54
21185;BME280;18176;49.502;11.754;2022-11-15T10:54:54;96495.97;;;21.78;39.08
21185;BME280;18176;49.502;11.754;2022-11-15T10:58:58;96485.91;;;22.09;38.01
21185;BME280;18176;49.502;11.754;2022-11-15T11:03:27;96496.94;;;22.38;38.20
21185;BME280;18176;49.502;11.754;2022-11-15T11:07:35;96496.31;;;22.41;37.94
21185;BME280;18176;49.502;11.754;2022-11-15T11:11:49;96477.88;;;22.43;37.74
21185;BME280;18176;49.502;11.754;2022-11-15T11:16:00;96485.03;;;22.30;37.89
21185;BME280;18176;49.502;11.754;2022-11-15T11:20:17;96455.41;;;21.91;38.25
21185;BME280;18176;49.502;11.754;2022-11-15T11:24:31;96481.00;;;22.11;38.44
21185;BME280;18176;49.502;11.754;2022-11-15T11:28:45;96459.28;;;23.27;37.12
21185;BME280;18176;49.502;11.754;2022-11-15T11:33:05;96466.06;;;23.59;36.03
21185;BME280;18176;49.502;11.754;2022-11-15T11:37:17;96462.16;;;23.77;35.75
21185;BME280;18176;49.502;11.754;2022-11-15T11:41:40;96460.31;;;24.27;35.10
21185;BME280;18176;49.502;11.754;2022-11-15T11:46:12;96437.97;;;23.72;35.71
21185;BME280;18176;49.502;11.754;2022-11-15T11:50:18;96431.25;;;24.16;35.60
21185;BME280;18176;49.502;11.754;2022-11-15T11:54:25;96431.00;;;24.50;35.16
21185;BME280;18176;49.502;11.754;2022-11-15T11:58:36;96432.69;;;24.96;33.91
21185;BME280;18176;49.502;11.754;2022-11-15T12:02:46;96420.22;;;25.60;33.53
21185;BME280;18176;49.502;11.754;2022-11-15T12:06:52;96412.56;;;26.51;32.54
21185;BME280;18176;49.502;11.754;2022-11-15T12:11:04;96410.09;;;26.85;31.39
21185;BME280;18176;49.502;11.754;2022-11-15T12:15:14;96398.91;;;27.46;30.50
21185;BME280;18176;49.502;11.754;2022-11-15T12:19:18;96400.03;;;26.86;31.20
21185;BME280;18176;49.502;11.754;2022-11-15T12:23:24;96389.34;;;26.53;30.91
21185;BME280;18176;49.502;11.754;2022-11-15T12:27:35;96389.88;;;26.07;32.18
21185;BME280;18176;49.502;11.754;2022-11-15T12:31:40;96383.88;;;27.21;30.89
21185;BME280;18176;49.502;11.754;2022-11-15T12:35:57;96380.94;;;26.98;30.33
21185;BME280;18176;49.502;11.754;2022-11-15T12:40:20;96377.84;;;26.44;30.45
21185;BME280;18176;49.502;11.754;2022-11-15T12:44:57;96376.78;;;25.60;31.58
21185;BME280;18176;49.502;11.754;2022-11-15T12:49:00;96378.84;;;25.51;32.14
21185;BME280;18176;49.502;11.754;2022-11-15T12:53:29;96352.78;;;25.14;32.22
21185;BME280;18176;49.502;11.754;2022-11-15T12:57:44;96367.94;;;25.27;31.87
21185;BME280;18176;49.502;11.754;2022-11-15T13:02:00;96340.38;;;25.86;31.43
21185;BME280;18176;49.502;11.754;2022-11-15T13:06:08;96325.75;;;26.97;30.39
21185;BME280;18176;49.502;11.754;2022-11-15T13:10:33;96327.75;;;26.57;30.31
21185;BME280;18176;49.502;11.754;2022-11-15T13:14:50;96337.44;;;26.70;30.54
21185;BME280;18176;49.502;11.754;2022-11-15T13:18:55;96357.19;;;28.04;28.81
21185;BME280;18176;49.502;11.754;2022-11-15T13:23:08;96350.31;;;27.79;29.10
21185;BME280;18176;49.502;11.754;2022-11-15T13:27:18;96304.72;;;27.26;29.70
21185;BME280;18176;49.502;11.754;2022-11-15T13:31:33;96299.09;;;26.32;31.01
21185;BME280;18176;49.502;11.754;2022-11-15T13:35:40;96295.63;;;25.67;31.87
21185;BME280;18176;49.502;11.754;2022-11-15T13:39:41;96294.28;;;25.25;32.23
21185;BME280;18176;49.502;11.754;2022-11-15T13:43:46;96329.25;;;24.28;33.65
21185;BME280;18176;49.502;11.754;2022-11-15T13:47:56;96329.66;;;23.89;34.12
21185;BME280;18176;49.502;11.754;2022-11-15T13:52:00;96290.81;;;23.64;34.23
21185;BME280;18176;49.502;11.754;2022-11-15T13:56:02;96288.88;;;23.53;34.71
21185;BME280;18176;49.502;11.754;2022-11-15T14:00:30;96294.97;;;22.40;36.27
21185;BME280;18176;49.502;11.754;2022-11-15T14:04:46;96264.97;;;21.99;37.19
21185;BME280;18176;49.502;11.754;2022-11-15T14:09:36;96257.47;;;21.44;37.65
21185;BME280;18176;49.502;11.754;2022-11-15T14:14:02;96280.66;;;22.65;36.49
21185;BME280;18176;49.502;11.754;2022-11-15T14:18:06;96272.72;;;22.98;35.75
21185;BME280;18176;49.502;11.754;2022-11-15T14:22:20;96257.38;;;23.19;35.33
21185;BME280;18176;49.502;11.754;2022-11-15T14:26:32;96255.94;;;23.92;34.58
21185;BME280;18176;49.502;11.754;2022-11-15T14:30:38;96235.06;;;24.46;33.48
21185;BME280;18176;49.502;11.754;2022-11-15T14:34:43;96268.38;;;24.79;33.26
21185;BME280;18176;49.502;11.754;2022-11-15T14:38:46;96214.69;;;23.95;33.75
21185;BME280;18176;49.502;11.754;2022-11-15T14:42:52;96254.25;;;23.38;35.43
21185;BME280;18176;49.502;11.754;2022-11-15T14:46:53;96216.34;;;22.42;36.63
21185;BME280;18176;49.502;11.754;2022-11-15T14:51:00;96205.44;;;22.21;37.25
21185;BME280;18176;49.502;11.754;2022-11-15T14:55:17;96222.81;;;23.04;36.31
21185;BME280;18176;49.502;11.754;2022-11-15T14:59:19;96186.22;;;22.77;36.70
21185;BME280;18176;49.502;11.754;2022-11-15T15:03:20;96231.41;;;22.51;37.16
21185;BME280;18176;49.502;11.754;2022-11-15T15:07:26;96207.22;;;21.48;38.45
21185;BME280;18176;49.502;11.754;2022-11-15T15:11:31;96217.28;;;20.61;40.16
21185;BME280;18176;49.502;11.754;2022-11-15T15:15:36;96215.94;;;20.19;40.95
21185;BME280;18176;49.502;11.754;2022-11-15T15:19:36;96198.72;;;19.53;41.88
21185;BME280;18176;49.502;11.754;2022-11-15T15:23:40;96186.44;;;19.12;42.66
21185;BME280;18176;49.502;11.754;2022-11-15T15:27:41;96236.59;;;19.03;43.51
21185;BME280;18176;49.502;11.754;2022-11-15T15:31:41;96221.00;;;18.64;44.46
21185;BME280;18176;49.502;11.754;2022-11-15T15:35:42;96221.44;;;18.25;45.21
21185;BME280;18176;49.502;11.754;2022-11-15T15:39:45;96233.16;;;17.97;45.68
21185;BME280;18176;49.502;11.754;2022-11-15T15:43:45;96216.06;;;17.61;46.76
21185;BME280;18176;49.502;11.754;2022-11-15T15:47:46;96209.00;;;17.27;47.49
21185;BME280;18176;49.502;11.754;2022-11-15T15:51:47;96222.75;;;17.21;47.76
21185;BME280;18176;49.502;11.754;2022-11-15T15:55:49;96212.69;;;16.94;48.97
21185;BME280;18176;49.502;11.754;2022-11-15T15:59:50;96223.56;;;16.79;49.31
21185;BME280;18176;49.502;11.754;2022-11-15T16:03:50;96224.88;;;16.58;50.35
21185;BME280;18176;49.502;11.754;2022-11-15T16:07:50;96224.72;;;16.44;51.27
21185;BME280;18176;49.502;11.754;2022-11-15T16:11:53;96217.44;;;16.26;53.21
21185;BME280;18176;49.502;11.754;2022-11-15T16:15:55;96229.19;;;15.96;53.55
21185;BME280;18176;49.502;11.754;2022-11-15T16:19:55;96226.09;;;15.84;53.52
21185;BME280;18176;49.502;11.754;2022-11-15T16:23:55;96228.34;;;15.72;54.14
21185;BME280;18176;49.502;11.754;2022-11-15T16:27:57;96231.91;;;15.58;54.25
21185;BME280;18176;49.502;11.754;2022-11-15T16:31:57;96230.63;;;15.50;54.27
21185;BME280;18176;49.502;11.754;2022-11-15T16:35:58;96231.22;;;15.37;54.21
21185;BME280;18176;49.502;11.754;2022-11-15T16:39:58;96229.44;;;15.22;55.04
21185;BME280;18176;49.502;11.754;2022-11-15T16:44:01;96227.66;;;15.08;55.47
21185;BME280;18176;49.502;11.754;2022-11-15T16:48:01;96226.66;;;14.94;55.20
21185;BME280;18176;49.502;11.754;2022-11-15T16:52:03;96218.69;;;14.84;55.26
21185;BME280;18176;49.502;11.754;2022-11-15T16:56:15;96220.88;;;14.71;55.33
21185;BME280;18176;49.502;11.754;2022-11-15T17:00:20;96217.16;;;14.67;55.65
21185;BME280;18176;49.502;11.754;2022-11-15T17:04:21;96216.13;;;14.53;56.48
21185;BME280;18176;49.502;11.754;2022-11-15T17:08:23;96208.22;;;14.38;57.08
21185;BME280;18176;49.502;11.754;2022-11-15T17:12:25;96205.81;;;14.27;56.63
21185;BME280;18176;49.502;11.754;2022-11-15T17:16:29;96204.50;;;14.09;57.39
21185;BME280;18176;49.502;11.754;2022-11-15T17:20:32;96214.09;;;14.05;57.48
21185;BME280;18176;49.502;11.754;2022-11-15T17:24:32;96208.75;;;14.00;59.40
21185;BME280;18176;49.502;11.754;2022-11-15T17:28:33;96211.44;;;14.05;58.31
21185;BME280;18176;49.502;11.754;2022-11-15T17:32:37;96208.22;;;14.13;58.29
21185;BME280;18176;49.502;11.754;2022-11-15T17:36:38;96203.94;;;14.22;57.75
21185;BME280;18176;49.502;11.754;2022-11-15T17:40:38;96195.97;;;14.22;57.99
21185;BME280;18176;49.502;11.754;2022-11-15T17:44:38;96202.34;;;14.21;57.47
21185;BME280;18176;49.502;11.754;2022-11-15T17:48:40;96197.81;;;14.22;57.29
21185;BME280;18176;49.502;11.754;2022-11-15T17:52:41;96187.97;;;14.12;57.08
21185;BME280;18176;49.502;11.754;2022-11-15T17:56:41;96185.31;;;14.17;56.98
21185;BME280;18176;49.502;11.754;2022-11-15T18:00:41;96185.78;;;14.39;56.25
21185;BME280;18176;49.502;11.754;2022-11-15T18:04:44;96184.97;;;14.44;56.02
21185;BME280;18176;49.502;11.754;2022-11-15T18:08:46;96184.38;;;14.67;55.59
21185;BME280;18176;49.502;11.754;2022-11-15T18:12:47;96185.50;;;14.51;57.00
21185;BME280;18176;49.502;11.754;2022-11-15T18:16:47;96172.97;;;14.46;56.38
21185;BME280;18176;49.502;11.754;2022-11-15T18:20:59;96165.50;;;14.53;55.64
21185;BME280;18176;49.502;11.754;2022-11-15T18:25:00;96161.78;;;14.54;55.05
21185;BME280;18176;49.502;11.754;2022-11-15T18:29:03;96170.59;;;14.40;54.90
21185;BME280;18176;49.502;11.754;2022-11-15T18:33:03;96177.31;;;14.22;55.18
21185;BME280;18176;49.502;11.754;2022-11-15T18:37:06;96172.56;;;13.99;55.72
21185;BME280;18176;49.502;11.754;2022-11-15T18:41:09;96166.72;;;14.02;56.05
21185;BME280;18176;49.502;11.754;2022-11-15T18:45:10;96162.44;;;14.06;56.32
21185;BME280;18176;49.502;11.754;2022-11-15T18:49:13;96160.28;;;14.08;56.20
21185;BME280;18176;49.502;11.754;2022-11-15T18:53:18;96152.56;;;14.06;55.97
21185;BME280;18176;49.502;11.754;2022-11-15T18:57:18;96165.09;;;14.11;56.20
21185;BME280;18176;49.502;11.754;2022-11-15T19:01:21;96164.56;;;13.94;56.50
21185;BME280;18176;49.502;11.754;2022-11-15T19:05:22;96141.72;;;13.58;57.27
21185;BME280;18176;49.502;11.754;2022-11-15T19:09:25;96163.00;;;13.73;56.78
21185;BME280;18176;49.502;11.754;2022-11-15T19:13:29;96143.59;;;13.52;56.88
21185;BME280;18176;49.502;11.754;2022-11-15T19:17:31;96167.81;;;13.51;57.31
21185;BME280;18176;49.502;11.754;2022-11-15T19:21:33;96164.63;;;13.44;57.83
21185;BME280;18176;49.502;11.754;2022-11-15T19:25:37;96119.91;;;13.15;57.68
21185;BME280;18176;49.502;11.754;2022-11-15T19:29:37;96159.28;;;13.13;58.74
21185;BME280;18176;49.502;11.754;2022-11-15T19:33:39;96150.22;;;13.19;59.48
21185;BME280;18176;49.502;11.754;2022-11-15T19:37:40;96160.09;;;13.14;60.86
21185;BME280;18176;49.502;11.754;2022-11-15T19:41:44;96147.34;;;13.26;60.19
21185;BME280;18176;49.502;11.754;2022-11-15T19:45:52;96151.31;;;13.18;60.13
21185;BME280;18176;49.502;11.754;2022-11-15T19:49:58;96143.88;;;13.30;59.92
21185;BME280;18176;49.502;11.754;2022-11-15T19:54:00;96127.09;;;13.30;58.89
21185;BME280;18176;49.502;11.754;2022-11-15T19:58:05;96145.44;;;13.06;59.81
21185;BME280;18176;49.502;11.754;2022-11-15T20:02:07;96115.13;;;13.22;58.98
21185;BME280;18176;49.502;11.754;2022-11-15T20:06:10;96110.78;;;12.76;59.10
21185;BME280;18176;49.502;11.754;2022-11-15T20:10:11;96126.25;;;12.89;59.32
21185;BME280;18176;49.502;11.754;2022-11-15T20:14:19;96110.72;;;12.46;60.40
21185;BME280;18176;49.502;11.754;2022-11-15T20:18:21;96127.19;;;12.53;60.09
21185;BME280;18176;49.502;11.754;2022-11-15T20:22:24;96135.72;;;12.55;60.24
21185;BME280;18176;49.502;11.754;2022-11-15T20:26:25;96124.06;;;12.61;59.87
21185;BME280;18176;49.502;11.754;2022-11-15T20:30:29;96136.34;;;12.82;59.40
21185;BME280;18176;49.502;11.754;2022-11-15T20:34:29;96122.78;;;12.84;59.02
21185;BME280;18176;49.502;11.754;2022-11-15T20:38:29;96127.81;;;12.90;59.01
21185;BME280;18176;49.502;11.754;2022-11-15T20:42:31;96124.31;;;12.64;59.51
21185;BME280;18176;49.502;11.754;2022-11-15T20:46:34;96121.19;;;12.78;59.17
21185;BME280;18176;49.502;11.754;2022-11-15T20:50:34;96118.22;;;12.74;58.97
21185;BME280;18176;49.502;11.754;2022-11-15T20:54:39;96111.84;;;12.70;58.99
21185;BME280;18176;49.502;11.754;2022-11-15T20:58:40;96116.09;;;12.66;58.68
21185;BME280;18176;49.502;11.754;2022-11-15T21:02:44;96120.84;;;12.59;58.65
21185;BME280;18176;49.502;11.754;2022-11-15T21:06:44;96095.75;;;12.20;58.85
21185;BME280;18176;49.502;11.754;2022-11-15T21:10:49;96086.22;;;12.24;59.10
21185;BME280;18176;49.502;11.754;2022-11-15T21:15:08;96091.03;;;12.37;58.84
21185;BME280;18176;49.502;11.754;2022-11-15T21:19:11;96072.91;;;12.19;59.02
21185;BME280;18176;49.502;11.754;2022-11-15T21:23:11;96088.81;;;12.09;59.42
21185;BME280;18176;49.502;11.754;2022-11-15T21:27:11;96079.22;;;12.03;59.53
21185;BME280;18176;49.502;11.754;2022-11-15T21:31:11;96071.25;;;12.03;59.33
21185;BME280;18176;49.502;11.754;2022-11-15T21:35:14;96068.31;;;11.99;59.44
21185;BME280;18176;49.502;11.754;2022-11-15T21:39:15;96069.59;;;11.86;59.84
21185;BME280;18176;49.502;11.754;2022-11-15T21:43:15;96070.91;;;11.84;59.57
21185;BME280;18176;49.502;11.754;2022-11-15T21:47:15;96070.66;;;11.90;59.34
21185;BME280;18176;49.502;11.754;2022-11-15T21:51:18;96069.09;;;11.94;59.08
21185;BME280;18176;49.502;11.754;2022-11-15T21:55:18;96067.25;;;12.00;58.84
21185;BME280;18176;49.502;11.754;2022-11-15T21:59:18;96053.97;;;12.00;58.70
21185;BME280;18176;49.502;11.754;2022-11-15T22:03:19;96044.09;;;11.90;58.81
21185;BME280;18176;49.502;11.754;2022-11-15T22:07:21;96039.28;;;11.77;58.54
21185;BME280;18176;49.502;11.754;2022-11-15T22:11:22;96008.91;;;11.58;59.20
21185;BME280;18176;49.502;11.754;2022-11-15T22:15:22;96020.09;;;11.65;59.01
21185;BME280;18176;49.502;11.754;2022-11-15T22:19:22;96017.94;;;11.57;59.03